Time;durP1;ratioP1;P1;durP2;ratioP2;P2;SDS_P1;SDS_P2;PMS_P1;PMS_P2;Temp;Humidity;BMP_temperature;BMP_pressure;BME280_temperature;BME280_humidity;BME280_pressure;Samples;Min_cycle;Max_cycle;Signal;HPM_P1;HPM_P2
2021/05/18 00:01:40;;;;;;;14.13;7.22;;;9.90;93.20;;;;;;5048177;28;20059;-61
2021/05/18 00:04:06;;;;;;;14.13;7.97;;;9.70;93.10;;;;;;5049498;28;20032;-61
2021/05/18 00:06:31;;;;;;;11.68;8.32;;;8.50;92.80;;;;;;5053897;28;20108;-61
2021/05/18 00:11:48;;;;;;;13.75;7.68;;;9.80;93.20;;;;;;5044800;28;20046;-60
2021/05/18 00:14:18;;;;;;;12.88;7.78;;;9.70;93.10;;;;;;5058788;28;20040;-61
2021/05/18 00:16:44;;;;;;;;;;;9.70;93.20;;;;;;5053495;28;20053;-61
2021/05/18 00:19:10;;;;;;;14.02;7.43;;;9.60;93.20;;;;;;5054481;28;20329;-61
2021/05/18 00:21:36;;;;;;;14.20;8.10;;;9.70;93.20;;;;;;5044009;28;20120;-62
2021/05/18 00:24:03;;;;;;;16.73;8.63;;;9.70;93.20;;;;;;5048120;28;20455;-61
2021/05/18 00:30:15;;;;;;;13.30;8.02;;;9.70;93.10;;;;;;4947197;28;20459;-61
2021/05/18 00:32:41;;;;;;;13.68;8.15;;;9.70;93.10;;;;;;5046697;28;20062;-61
2021/05/18 00:35:08;;;;;;;16.27;8.32;;;10.10;93.30;;;;;;5051745;28;20041;-61
2021/05/18 00:37:34;;;;;;;13.82;7.78;;;9.70;93.30;;;;;;5048427;28;20059;-61
2021/05/18 00:40:01;;;;;;;15.68;8.27;;;9.70;93.20;;;;;;5046822;28;20041;-61
2021/05/18 00:42:27;;;;;;;17.70;9.65;;;9.80;93.10;;;;;;5046574;28;20456;-61
2021/05/18 00:44:53;;;;;;;14.65;8.00;;;10.50;93.60;;;;;;5038070;28;20426;-61
2021/05/18 00:47:19;;;;;;;16.55;9.13;;;9.70;93.10;;;;;;5045613;28;20059;-61
2021/05/18 00:49:45;;;;;;;13.45;7.80;;;8.10;92.80;;;;;;5035251;28;20494;-61
2021/05/18 00:52:12;;;;;;;14.05;8.35;;;9.50;93.40;;;;;;5047273;28;20047;-61
2021/05/18 00:59:51;;;;;;;13.98;8.48;;;10.10;93.10;;;;;;5048196;28;20481;-61
2021/05/18 01:02:17;;;;;;;12.70;7.68;;;10.10;93.00;;;;;;5047267;28;20033;-61
2021/05/18 01:04:44;;;;;;;11.85;8.45;;;9.60;92.90;;;;;;5047784;28;20094;-61
2021/05/18 01:07:10;;;;;;;13.73;8.25;;;9.80;92.90;;;;;;5070393;28;20039;-62
2021/05/18 01:09:36;;;;;;;12.40;7.90;;;9.80;93.00;;;;;;5048853;28;20169;-61
2021/05/18 01:12:02;;;;;;;12.80;7.70;;;9.80;93.10;;;;;;5047874;28;20068;-62
2021/05/18 01:14:29;;;;;;;13.65;7.72;;;9.50;92.90;;;;;;5047962;28;20048;-61
2021/05/18 01:16:55;;;;;;;15.35;8.40;;;8.40;92.60;;;;;;5046829;28;20124;-62
2021/05/18 01:19:24;;;;;;;12.52;8.00;;;9.80;92.80;;;;;;5047936;28;20121;-62
2021/05/18 01:21:50;;;;;;;12.38;8.35;;;9.80;92.80;;;;;;5051138;28;20060;-61
2021/05/18 01:24:19;;;;;;;13.02;7.97;;;9.80;92.80;;;;;;5050580;28;20048;-61
2021/05/18 01:26:47;;;;;;;14.60;8.93;;;9.80;92.90;;;;;;5061954;28;20457;-62
2021/05/18 01:29:17;;;;;;;12.90;7.32;;;9.50;92.70;;;;;;5050372;28;20033;-61
2021/05/18 01:31:44;;;;;;;16.95;8.02;;;9.70;92.50;;;;;;5052239;28;20121;-61
2021/05/18 01:34:11;;;;;;;14.02;8.25;;;9.90;92.30;;;;;;5053153;28;20052;-61
2021/05/18 01:36:37;;;;;;;14.73;8.65;;;9.70;92.50;;;;;;5045805;28;20037;-61
2021/05/18 01:44:23;;;;;;;19.15;9.70;;;9.60;92.80;;;;;;5050767;28;20040;-61
2021/05/18 01:46:49;;;;;;;16.02;9.02;;;9.70;92.80;;;;;;5044113;28;20037;-61
2021/05/18 01:49:18;;;;;;;17.40;9.05;;;9.60;92.90;;;;;;5052820;28;20095;-61
2021/05/18 01:51:50;;;;;;;17.98;9.50;;;8.90;93.00;;;;;;5050372;28;20486;-61
2021/05/18 01:54:23;;;;;;;17.80;9.68;;;9.60;92.90;;;;;;5051899;28;20037;-61
2021/05/18 01:56:53;;;;;;;14.18;9.32;;;9.50;93.10;;;;;;5050732;28;20112;-61
2021/05/18 01:59:24;;;;;;;13.93;9.40;;;9.40;93.00;;;;;;5043513;28;20486;-61
2021/05/18 02:01:54;;;;;;;15.18;8.60;;;9.50;93.00;;;;;;5050412;28;20128;-61
2021/05/18 02:04:34;;;;;;;15.18;9.55;;;9.50;93.00;;;;;;5050784;28;20512;-63
2021/05/18 02:07:04;;;;;;;14.52;8.77;;;9.40;93.00;;;;;;5051050;28;20037;-61
2021/05/18 02:09:30;;;;;;;16.70;9.82;;;9.30;93.00;;;;;;5051560;28;20044;-61
2021/05/18 02:11:57;;;;;;;13.57;8.70;;;9.40;93.00;;;;;;5050978;28;20495;-61
2021/05/18 02:14:28;;;;;;;15.27;9.00;;;9.30;93.00;;;;;;5041302;28;20037;-62
2021/05/18 02:17:57;;;;;;;15.20;10.05;;;10.70;93.40;;;;;;5051104;28;20061;-62
2021/05/18 02:20:10;;;;;;;14.68;10.07;;;8.70;92.80;;;;;;5035859;28;20121;-62
2021/05/18 02:25:24;;;;;;;16.27;9.27;;;9.10;92.90;;;;;;5051951;28;20375;-62
2021/05/18 02:27:51;;;;;;;18.25;9.82;;;9.10;92.90;;;;;;5052594;28;20036;-62
2021/05/18 02:30:18;;;;;;;18.27;9.82;;;8.90;93.20;;;;;;5051704;28;20098;-62
2021/05/18 02:32:45;;;;;;;12.95;8.55;;;8.90;93.20;;;;;;5050277;28;20041;-62
2021/05/18 02:35:12;;;;;;;17.25;9.55;;;8.30;93.00;;;;;;5050711;28;20207;-62
2021/05/18 02:37:39;;;;;;;21.13;9.90;;;9.00;93.20;;;;;;5052321;28;20084;-62
2021/05/18 02:40:08;;;;;;;17.58;9.85;;;8.90;93.10;;;;;;5051268;28;20171;-62
2021/05/18 02:42:34;;;;;;;12.52;8.98;;;8.60;93.10;;;;;;5051423;28;20071;-62
2021/05/18 02:45:07;;;;;;;17.58;10.50;;;8.80;93.30;;;;;;5049657;28;20076;-62
2021/05/18 02:50:18;;;;;;;15.60;10.07;;;9.20;93.70;;;;;;5061108;28;20144;-62
2021/05/18 02:52:44;;;;;;;15.13;9.73;;;9.50;93.70;;;;;;5051082;28;20547;-62
2021/05/18 02:55:18;;;;;;;16.25;9.70;;;9.60;93.60;;;;;;5049504;28;20052;-62
2021/05/18 02:57:46;;;;;;;14.93;9.95;;;8.70;93.70;;;;;;5050148;28;20269;-61
2021/05/18 03:00:23;;;;;;;17.48;8.90;;;7.80;93.20;;;;;;5049069;28;20053;-62
2021/05/18 03:02:51;;;;;;;17.30;9.35;;;8.70;93.50;;;;;;5050046;28;20396;-61
2021/05/18 03:05:19;;;;;;;13.07;9.70;;;9.80;93.60;;;;;;5049125;28;20073;-62
2021/05/18 03:07:45;;;;;;;17.08;10.68;;;7.00;93.30;;;;;;5050976;28;20062;-61
2021/05/18 03:10:15;;;;;;;16.50;9.80;;;8.20;93.40;;;;;;5061080;28;20041;-62
2021/05/18 03:12:41;;;;;;;14.15;9.27;;;8.30;93.40;;;;;;5057344;28;20112;-62
2021/05/18 03:15:07;;;;;;;16.65;9.43;;;9.80;93.90;;;;;;5054064;28;20090;-62
2021/05/18 03:17:35;;;;;;;15.07;9.45;;;8.60;93.60;;;;;;5050195;28;20037;-62
2021/05/18 03:20:09;;;;;;;17.40;9.73;;;8.30;93.40;;;;;;5050497;28;20061;-62
2021/05/18 03:22:35;;;;;;;13.63;9.25;;;9.70;94.10;;;;;;5058493;28;20044;-62
2021/05/18 03:25:03;;;;;;;19.40;11.27;;;8.70;93.80;;;;;;5038744;28;20033;-62
2021/05/18 03:27:29;;;;;;;16.13;10.23;;;7.20;93.30;;;;;;5057932;28;20036;-62
2021/05/18 03:29:58;;;;;;;18.55;10.45;;;8.10;93.70;;;;;;5050840;28;20045;-62
2021/05/18 03:35:09;;;;;;;18.25;9.70;;;8.00;93.20;;;;;;5041792;28;20612;-62
2021/05/18 03:40:05;;;;;;;16.75;9.98;;;8.10;93.40;;;;;;5049068;28;20125;-62
2021/05/18 03:43:00;;;;;;;20.88;10.40;;;8.00;93.50;;;;;;5050037;28;20049;-62
2021/05/18 03:45:20;;;;;;;17.13;9.55;;;7.50;93.70;;;;;;5040893;28;20057;-62
2021/05/18 03:58:39;;;;;;;19.52;10.55;;;7.10;93.70;;;;;;5047065;28;20111;-61
2021/05/18 04:12:09;;;;;;;20.63;11.00;;;7.80;94.50;;;;;;5044787;28;20103;-62
2021/05/18 04:17:24;;;;;;;20.42;10.95;;;7.60;94.90;;;;;;5035998;28;20041;-63
2021/05/18 04:20:19;;;;;;;25.20;12.45;;;8.70;95.20;;;;;;5049481;28;20095;-62
2021/05/18 04:23:53;;;;;;;21.27;11.45;;;;;;;;;;5046474;28;20094;-62
2021/05/18 04:50:04;;;;;;;19.60;13.00;;;7.70;94.60;;;;;;5047787;28;20036;-62
2021/05/18 05:00:27;;;;;;;17.30;11.18;;;8.20;94.80;;;;;;5042056;28;20052;-61
2021/05/18 05:03:09;;;;;;;19.50;12.57;;;7.80;94.70;;;;;;5048666;28;20502;-62
2021/05/18 05:16:14;;;;;;;18.80;11.65;;;7.40;94.70;;;;;;5046857;28;20111;-62
2021/05/18 05:18:40;;;;;;;21.13;11.98;;;9.00;95.00;;;;;;5048598;28;20085;-62
2021/05/18 05:21:06;;;;;;;19.67;11.57;;;8.60;95.00;;;;;;5047621;28;20119;-63
2021/05/18 05:23:32;;;;;;;23.38;12.50;;;8.40;94.60;;;;;;5047319;28;20534;-62
2021/05/18 05:25:58;;;;;;;22.95;11.88;;;8.50;95.00;;;;;;5046690;28;20155;-62
2021/05/18 05:28:24;;;;;;;19.98;11.35;;;8.90;95.20;;;;;;5048232;28;20165;-62
2021/05/18 05:30:50;;;;;;;22.30;12.68;;;8.20;94.60;;;;;;5046626;28;20096;-63
2021/05/18 05:33:16;;;;;;;21.27;13.23;;;9.10;94.70;;;;;;5048275;28;20139;-62
2021/05/18 05:35:42;;;;;;;19.02;11.82;;;8.50;94.40;;;;;;5048810;28;20104;-62
2021/05/18 05:38:08;;;;;;;19.13;11.85;;;8.80;94.50;;;;;;5047882;28;20094;-62
2021/05/18 05:40:34;;;;;;;20.15;12.15;;;8.30;94.20;;;;;;5048367;28;20068;-63
2021/05/18 05:43:00;;;;;;;19.73;11.80;;;9.60;94.90;;;;;;5047425;28;20037;-63
2021/05/18 05:45:26;;;;;;;18.80;10.88;;;9.00;94.40;;;;;;5045483;28;20120;-62
2021/05/18 05:47:52;;;;;;;18.13;10.82;;;8.70;94.40;;;;;;5049679;28;20069;-61
2021/05/18 05:50:19;;;;;;;18.58;11.52;;;9.20;94.50;;;;;;5047459;28;20053;-62
2021/05/18 05:52:44;;;;;;;19.30;11.23;;;9.60;94.50;;;;;;5047914;28;20087;-61
2021/05/18 05:55:11;;;;;;;16.52;8.93;;;9.50;94.30;;;;;;5045305;28;20033;-61
2021/05/18 05:57:37;;;;;;;16.25;10.02;;;9.70;93.60;;;;;;5048589;28;20037;-61
2021/05/18 06:00:11;;;;;;;14.88;11.10;;;9.80;93.30;;;;;;5045642;28;20146;-61
2021/05/18 06:02:37;;;;;;;14.63;9.68;;;10.30;93.20;;;;;;5047258;28;20129;-61
2021/05/18 06:05:03;;;;;;;16.85;9.63;;;10.60;93.20;;;;;;5047349;28;20176;-62
2021/05/18 06:07:29;;;;;;;14.60;9.35;;;10.10;92.40;;;;;;5049313;28;20094;-61
2021/05/18 06:10:00;;;;;;;13.82;9.13;;;9.60;92.40;;;;;;5051012;28;20090;-61
2021/05/18 06:12:37;;;;;;;16.02;10.05;;;10.50;92.70;;;;;;5055908;28;20108;-61
2021/05/18 06:15:27;;;;;;;13.73;9.32;;;10.20;92.50;;;;;;5047737;28;20109;-62
2021/05/18 06:47:35;;;;;;;10.93;6.80;;;11.10;89.80;;;;;;5041319;28;20150;-62
2021/05/18 06:52:42;;;;;;;11.13;7.07;;;11.20;89.50;;;;;;5044551;28;20090;-61
2021/05/18 06:55:10;;;;;;;10.02;7.00;;;11.20;89.40;;;;;;5048420;28;20542;-61
2021/05/18 06:57:37;;;;;;;12.10;8.05;;;11.20;87.30;;;;;;5051358;28;20112;-61
2021/05/18 07:00:21;;;;;;;12.13;7.95;;;11.20;89.00;;;;;;5049905;28;20109;-61
2021/05/18 07:02:49;;;;;;;10.40;7.22;;;11.30;88.70;;;;;;5050271;28;20125;-61
2021/05/18 07:10:29;;;;;;;10.57;6.97;;;11.40;87.60;;;;;;5062762;28;20462;-61
2021/05/18 07:12:54;;;;;;;9.98;7.13;;;11.40;87.40;;;;;;5050917;28;20089;-62
2021/05/18 07:15:20;;;;;;;9.10;6.70;;;11.60;86.10;;;;;;5062400;28;20200;-62
2021/05/18 07:17:46;;;;;;;11.10;6.93;;;11.60;86.50;;;;;;5050943;28;20090;-62
2021/05/18 07:20:12;;;;;;;14.07;8.55;;;12.20;87.00;;;;;;5049830;28;20110;-62
2021/05/18 07:22:38;;;;;;;9.77;6.95;;;11.90;86.00;;;;;;5050624;28;20085;-62
2021/05/18 07:25:05;;;;;;;10.45;7.30;;;12.10;87.40;;;;;;5050714;28;20101;-62
2021/05/18 07:27:31;;;;;;;10.95;7.28;;;12.30;84.20;;;;;;5047760;28;20096;-62
2021/05/18 07:29:56;;;;;;;12.55;7.50;;;12.50;84.30;;;;;;5030859;28;20105;-62
2021/05/18 07:32:22;;;;;;;11.98;7.63;;;12.60;82.00;;;;;;5049682;28;20043;-62
2021/05/18 07:34:50;;;;;;;10.10;7.90;;;12.70;80.40;;;;;;5050064;28;20090;-62
2021/05/18 07:37:16;;;;;;;13.60;8.45;;;12.50;81.00;;;;;;5049312;28;20041;-62
2021/05/18 07:39:43;;;;;;;11.75;8.23;;;13.20;84.40;;;;;;5048897;28;20128;-62
2021/05/18 07:42:10;;;;;;;11.52;7.78;;;12.40;83.40;;;;;;5050222;28;20502;-62
2021/05/18 07:44:36;;;;;;;10.07;8.07;;;12.30;82.30;;;;;;5048624;28;20029;-62
2021/05/18 07:47:02;;;;;;;12.20;7.88;;;12.30;82.60;;;;;;5049968;28;20045;-62
2021/05/18 07:49:38;;;;;;;10.90;7.53;;;12.40;83.40;;;;;;5049325;28;20049;-61
2021/05/18 08:05:26;;;;;;;10.95;5.80;;;12.50;79.50;;;;;;5048503;28;20503;-61
2021/05/18 08:07:52;;;;;;;11.80;7.50;;;12.60;81.10;;;;;;5048760;28;20806;-62
2021/05/18 08:10:25;;;;;;;7.85;6.07;;;12.60;80.10;;;;;;5048157;28;20064;-62
2021/05/18 08:12:51;;;;;;;10.90;6.78;;;12.70;82.20;;;;;;5040524;28;20033;-62
2021/05/18 08:46:34;;;;;;;6.22;4.68;;;14.90;75.90;;;;;;5037185;28;20160;-62
2021/05/18 08:49:15;;;;;;;6.30;4.88;;;14.20;72.20;;;;;;5048583;28;20549;-63
2021/05/18 10:36:30;;;;;;;8.38;6.00;;;15.90;60.60;;;;;;5041775;28;20431;-63
2021/05/18 10:39:17;;;;;;;9.02;6.13;;;15.60;62.00;;;;;;5090122;28;20088;-63
2021/05/18 10:41:43;;;;;;;7.80;5.90;;;15.40;64.40;;;;;;5045044;28;20108;-62
2021/05/18 10:44:09;;;;;;;6.95;5.22;;;15.30;66.00;;;;;;5061243;28;20141;-63
2021/05/18 10:47:04;;;;;;;7.28;5.55;;;15.20;66.00;;;;;;5036030;28;20085;-63
2021/05/18 10:49:33;;;;;;;7.80;5.65;;;15.00;67.70;;;;;;5049110;28;20451;-63
2021/05/18 10:52:06;;;;;;;;;;;14.90;68.00;;;;;;5043151;28;20092;-63
2021/05/18 10:54:42;;;;;;;9.23;6.43;;;14.90;69.20;;;;;;5050742;28;20045;-63
2021/05/18 10:57:16;;;;;;;9.32;5.78;;;14.90;69.10;;;;;;5038567;28;20096;-63
2021/05/18 10:59:51;;;;;;;8.88;5.53;;;15.00;67.30;;;;;;5050285;28;20093;-63
2021/05/18 11:02:33;;;;;;;7.35;6.10;;;15.00;66.70;;;;;;5050745;28;20127;-63
2021/05/18 11:05:02;;;;;;;6.85;5.32;;;14.90;66.30;;;;;;5051389;28;20089;-63
2021/05/18 11:07:38;;;;;;;8.02;6.05;;;14.80;66.30;;;;;;5039408;28;20088;-63
2021/05/18 11:10:14;;;;;;;7.50;5.68;;;14.60;67.40;;;;;;5037375;28;20089;-63
2021/05/18 11:12:41;;;;;;;7.88;6.07;;;14.60;68.60;;;;;;5050714;28;20633;-62
2021/05/18 11:15:10;;;;;;;9.32;6.05;;;14.50;67.40;;;;;;5050259;28;20089;-63
2021/05/18 11:17:46;;;;;;;8.52;6.38;;;14.70;66.80;;;;;;5049326;28;20091;-63
2021/05/18 11:20:35;;;;;;;8.98;6.00;;;14.60;67.20;;;;;;5050972;28;20196;-63
2021/05/18 11:25:55;;;;;;;9.55;6.78;;;14.60;65.90;;;;;;5048650;28;20890;-63
2021/05/18 11:28:22;;;;;;;7.35;5.00;;;14.50;65.40;;;;;;5050420;28;20134;-63
2021/05/18 11:30:52;;;;;;;5.57;4.30;;;14.50;65.70;;;;;;5050152;28;20092;-63
2021/05/18 11:33:18;;;;;;;5.17;4.30;;;14.50;66.10;;;;;;5050354;28;20088;-63
2021/05/18 11:35:58;;;;;;;5.30;3.42;;;14.50;65.00;;;;;;5050025;28;20421;-63
2021/05/18 11:38:27;;;;;;;5.32;3.00;;;14.50;64.40;;;;;;5051372;28;20142;-63
2021/05/18 11:40:52;;;;;;;4.55;2.78;;;13.90;62.90;;;;;;5048711;28;20107;-64
2021/05/18 11:43:24;;;;;;;3.85;2.92;;;14.50;63.70;;;;;;5049037;28;20088;-63
2021/05/18 11:46:09;;;;;;;4.85;3.00;;;14.60;64.60;;;;;;5039614;28;20612;-64
2021/05/18 11:48:40;;;;;;;5.43;3.75;;;14.60;64.80;;;;;;5047273;28;20612;-64
2021/05/18 11:51:10;;;;;;;4.70;3.58;;;14.70;64.00;;;;;;5048867;28;20092;-64
2021/05/18 11:53:45;;;;;;;5.05;4.13;;;14.70;65.20;;;;;;5048053;28;20033;-63
2021/05/18 11:56:38;;;;;;;5.25;4.25;;;14.70;63.50;;;;;;5047704;28;20075;-63
2021/05/18 11:59:15;;;;;;;4.97;4.22;;;14.70;63.90;;;;;;5043403;28;20177;-63
2021/05/18 12:01:44;;;;;;;5.38;3.95;;;14.80;64.10;;;;;;5049009;28;20160;-63
2021/05/18 12:04:14;;;;;;;5.95;4.10;;;15.70;65.40;;;;;;5038613;28;20432;-63
2021/05/18 12:07:00;;;;;;;4.45;3.42;;;14.60;65.50;;;;;;5048912;28;20094;-63
2021/05/18 12:09:27;;;;;;;5.20;4.40;;;14.60;65.80;;;;;;5037499;28;20052;-63
2021/05/18 12:11:57;;;;;;;7.57;3.85;;;14.50;65.40;;;;;;5045315;28;20267;-63
2021/05/18 12:14:23;;;;;;;8.27;3.97;;;14.20;72.50;;;;;;5049364;28;20071;-64
2021/05/18 12:16:50;;;;;;;5.35;3.90;;;13.80;75.20;;;;;;5049084;28;20054;-64
2021/05/18 12:19:17;;;;;;;3.92;2.60;;;13.20;76.70;;;;;;5048375;28;20079;-63
2021/05/18 12:21:48;;;;;;;4.57;2.80;;;13.00;74.60;;;;;;5050039;28;20278;-63
2021/05/18 12:24:27;;;;;;;4.68;2.90;;;12.60;77.70;;;;;;5040678;28;20458;-64
2021/05/18 12:27:01;;;;;;;4.23;3.00;;;12.10;79.40;;;;;;5049860;28;20093;-64
2021/05/18 12:29:46;;;;;;;4.88;3.05;;;12.20;79.00;;;;;;5048747;28;20087;-64
2021/05/18 12:32:27;;;;;;;5.93;3.50;;;12.10;80.40;;;;;;5047808;28;20485;-64
2021/05/18 12:34:57;;;;;;;8.32;4.75;;;14.20;85.90;;;;;;5036175;28;20104;-63
2021/05/18 12:37:44;;;;;;;5.88;3.67;;;12.00;83.00;;;;;;5042075;28;20182;-63
2021/05/18 12:40:14;;;;;;;5.45;3.70;;;12.40;82.70;;;;;;5039728;28;20180;-63
2021/05/18 12:42:42;;;;;;;6.47;4.32;;;12.50;81.40;;;;;;5047904;28;20097;-63
2021/05/18 12:45:17;;;;;;;5.63;3.20;;;12.70;82.50;;;;;;5039793;28;20188;-64
2021/05/18 12:47:44;;;;;;;6.28;4.18;;;13.80;80.20;;;;;;5047964;28;20100;-63
2021/05/18 12:50:12;;;;;;;5.22;3.72;;;12.90;79.80;;;;;;5047863;28;20097;-63
2021/05/18 12:52:40;;;;;;;5.10;4.03;;;13.00;79.50;;;;;;5049230;28;20554;-63
2021/05/18 12:55:26;;;;;;;4.90;3.95;;;13.60;76.20;;;;;;5043864;28;20089;-63
2021/05/18 12:57:57;;;;;;;5.55;4.25;;;13.40;78.10;;;;;;5048477;28;20096;-63
2021/05/18 13:00:35;;;;;;;7.30;4.10;;;13.90;76.70;;;;;;5047030;28;20104;-63
2021/05/18 13:03:15;;;;;;;6.30;4.40;;;14.10;81.30;;;;;;5048217;28;20239;-63
2021/05/18 13:05:43;;;;;;;5.32;4.25;;;14.30;79.60;;;;;;5035295;28;20544;-63
2021/05/18 13:08:13;;;;;;;5.68;4.15;;;14.60;77.40;;;;;;5047968;28;20085;-63
2021/05/18 13:13:55;;;;;;;4.53;3.00;;;14.90;71.50;;;;;;5047867;28;20097;-63
2021/05/18 13:16:24;;;;;;;5.32;3.55;;;15.10;70.00;;;;;;5049493;28;20091;-63
2021/05/18 13:19:12;;;;;;;4.90;3.20;;;15.20;71.90;;;;;;5052548;28;20088;-63
2021/05/18 13:22:00;;;;;;;6.30;3.67;;;15.50;70.10;;;;;;5039151;28;20108;-63
2021/05/18 13:27:10;;;;;;;4.55;3.30;;;15.20;67.20;;;;;;5052314;28;20047;-63
2021/05/18 13:29:36;;;;;;;6.55;3.53;;;15.00;67.70;;;;;;5051650;28;20028;-63
2021/05/18 13:32:04;;;;;;;4.88;3.42;;;15.00;68.20;;;;;;5051009;28;20065;-63
2021/05/18 13:34:30;;;;;;;5.10;3.50;;;15.10;66.00;;;;;;5065399;28;20124;-63
2021/05/18 13:36:56;;;;;;;4.10;3.35;;;15.00;68.20;;;;;;5052606;28;20119;-63
2021/05/18 13:39:25;;;;;;;5.70;3.60;;;14.90;69.30;;;;;;5050544;28;20494;-62
2021/05/18 13:41:51;;;;;;;5.30;3.47;;;14.90;70.70;;;;;;5040278;28;20037;-63
2021/05/18 13:44:17;;;;;;;4.88;3.88;;;14.90;71.90;;;;;;5045776;28;20038;-63
2021/05/18 13:46:45;;;;;;;5.13;3.47;;;14.80;71.50;;;;;;5050345;28;20033;-63
2021/05/18 13:49:13;;;;;;;4.68;3.33;;;14.70;70.80;;;;;;5052311;28;20041;-63
2021/05/18 13:51:40;;;;;;;4.55;3.55;;;14.70;72.90;;;;;;5051162;28;20041;-63
2021/05/18 13:54:06;;;;;;;4.35;3.47;;;14.70;73.40;;;;;;5047916;28;20033;-63
2021/05/18 13:56:33;;;;;;;4.43;3.95;;;14.80;74.20;;;;;;5055338;28;20044;-63
2021/05/18 13:58:59;;;;;;;4.70;3.70;;;15.00;74.70;;;;;;5052691;28;20041;-63
2021/05/18 14:01:25;;;;;;;4.60;3.95;;;15.30;75.10;;;;;;5049760;28;20060;-63
2021/05/18 14:03:54;;;;;;;4.88;3.67;;;15.60;71.30;;;;;;5051803;28;20033;-63
2021/05/18 14:06:20;;;;;;;4.43;3.45;;;15.80;66.70;;;;;;5051540;28;20047;-63
2021/05/18 14:08:46;;;;;;;4.47;3.47;;;16.20;70.90;;;;;;5050989;28;21366;-63
2021/05/18 14:11:13;;;;;;;5.07;3.78;;;16.10;70.90;;;;;;5051541;28;20069;-63
2021/05/18 14:13:42;;;;;;;5.00;3.75;;;16.40;69.30;;;;;;5047339;28;20044;-63
2021/05/18 14:16:09;;;;;;;5.72;4.28;;;16.60;65.10;;;;;;5039580;28;20037;-63
2021/05/18 14:18:36;;;;;;;5.00;4.13;;;16.60;65.80;;;;;;5050855;28;20064;-63
2021/05/18 14:21:03;;;;;;;6.45;4.63;;;16.70;66.30;;;;;;5049787;28;20494;-63
2021/05/18 14:26:08;;;;;;;6.68;4.70;;;17.00;67.60;;;;;;5046176;28;20456;-64
2021/05/18 14:28:36;;;;;;;6.85;5.20;;;17.00;62.20;;;;;;5043119;28;20068;-63
2021/05/18 14:31:04;;;;;;;6.20;4.75;;;17.00;63.20;;;;;;5050474;28;20187;-63
2021/05/18 14:33:31;;;;;;;7.45;5.85;;;16.90;63.60;;;;;;5050918;28;20095;-63
2021/05/18 14:35:57;;;;;;;6.70;5.10;;;16.90;64.30;;;;;;5050699;28;20115;-63
2021/05/18 14:38:25;;;;;;;4.47;3.55;;;16.90;63.50;;;;;;5051355;28;20409;-63
2021/05/18 14:55:07;;;;;;;6.32;3.95;;;17.40;60.40;;;;;;5044330;28;20512;-64
2021/05/18 14:57:33;;;;;;;5.78;3.92;;;17.50;58.30;;;;;;5049396;28;20099;-64
2021/05/18 14:59:59;;;;;;;6.00;4.30;;;17.60;58.40;;;;;;5050827;28;20141;-64
2021/05/18 15:02:25;;;;;;;5.97;4.22;;;17.40;58.80;;;;;;5046862;28;20158;-64
2021/05/18 15:04:51;;;;;;;5.70;3.97;;;17.00;59.50;;;;;;5050381;28;20402;-64
2021/05/18 15:07:17;;;;;;;5.85;4.18;;;16.80;59.20;;;;;;5050596;28;20041;-64
2021/05/18 15:09:43;;;;;;;5.20;4.30;;;16.50;59.70;;;;;;5049601;28;20041;-64
2021/05/18 15:12:10;;;;;;;5.53;4.22;;;16.20;60.50;;;;;;5049424;28;20041;-64
2021/05/18 15:14:36;;;;;;;5.10;4.25;;;16.00;62.90;;;;;;5051109;28;20033;-64
2021/05/18 15:17:02;;;;;;;8.07;5.05;;;15.90;64.70;;;;;;5050366;28;20064;-63
2021/05/18 15:19:30;;;;;;;6.05;4.70;;;15.80;66.20;;;;;;5051072;28;20510;-64
2021/05/18 15:21:58;;;;;;;8.52;5.40;;;15.80;66.00;;;;;;5051162;28;20045;-64
2021/05/18 15:24:28;;;;;;;6.75;5.18;;;15.80;65.20;;;;;;5049242;28;21614;-64
2021/05/18 15:26:54;;;;;;;7.05;5.30;;;15.20;65.80;;;;;;5048632;28;20033;-64
2021/05/18 15:29:21;;;;;;;9.48;6.38;;;16.20;66.30;;;;;;5050367;28;20069;-64
2021/05/18 15:31:47;;;;;;;5.82;4.50;;;15.60;66.10;;;;;;5043662;28;20059;-64
2021/05/18 15:34:13;;;;;;;6.18;5.25;;;15.60;67.40;;;;;;5041611;28;20075;-62
2021/05/18 15:36:40;;;;;;;6.82;5.10;;;15.60;66.80;;;;;;4342413;28;10000758;-62
2021/05/18 15:39:06;;;;;;;6.50;5.43;;;15.50;67.70;;;;;;5046392;28;20463;-62
2021/05/18 15:41:32;;;;;;;7.03;5.10;;;15.50;68.50;;;;;;5044720;28;20029;-61
2021/05/18 15:44:00;;;;;;;7.78;5.45;;;14.90;67.00;;;;;;5046557;28;20099;-61
2021/05/18 15:46:26;;;;;;;8.45;7.00;;;15.40;68.50;;;;;;5049520;28;20037;-62
2021/05/18 15:48:51;;;;;;;8.43;6.30;;;15.50;69.70;;;;;;5042845;28;20119;-62
2021/05/18 15:51:17;;;;;;;9.85;7.13;;;15.50;68.90;;;;;;5046180;28;20048;-61
2021/05/18 15:53:43;;;;;;;8.32;5.68;;;15.60;70.80;;;;;;5045773;28;20041;-63
2021/05/18 15:56:09;;;;;;;8.20;6.45;;;15.70;70.20;;;;;;5046101;28;20048;-64
2021/05/18 15:58:35;;;;;;;10.23;6.55;;;15.70;69.10;;;;;;5045749;28;20029;-64
2021/05/18 16:01:01;;;;;;;7.97;6.43;;;15.40;68.20;;;;;;5045380;28;20099;-63
2021/05/18 16:03:27;;;;;;;9.07;5.80;;;15.80;69.40;;;;;;5034150;28;20410;-63
2021/05/18 16:05:53;;;;;;;9.02;6.50;;;15.20;69.90;;;;;;5044938;28;20076;-62
2021/05/18 16:10:55;;;;;;;8.10;5.55;;;15.10;70.90;;;;;;5044953;28;20066;-63
2021/05/18 16:13:21;;;;;;;7.60;6.07;;;15.00;71.40;;;;;;5040840;28;20037;-63
2021/05/18 16:15:47;;;;;;;7.63;6.00;;;15.00;71.40;;;;;;5049703;28;20056;-64
2021/05/18 16:18:13;;;;;;;9.88;6.68;;;15.00;70.70;;;;;;5044971;28;20037;-64
2021/05/18 16:20:40;;;;;;;9.20;6.57;;;15.70;72.20;;;;;;5046373;28;20045;-64
2021/05/18 16:23:07;;;;;;;9.75;6.63;;;14.80;71.80;;;;;;5043293;28;20053;-64
2021/05/18 16:25:33;;;;;;;10.10;6.43;;;14.80;71.40;;;;;;5042089;28;20075;-64
2021/05/18 16:27:58;;;;;;;9.52;6.68;;;12.50;69.70;;;;;;5044375;28;20033;-65
2021/05/18 16:30:25;;;;;;;9.48;6.85;;;14.70;72.60;;;;;;5033039;28;20049;-63
2021/05/18 16:32:51;;;;;;;8.88;6.45;;;14.90;72.30;;;;;;5042040;28;20064;-64
2021/05/18 16:35:16;;;;;;;9.23;6.80;;;15.80;72.60;;;;;;5046516;28;20085;-64
2021/05/18 16:37:43;;;;;;;10.60;6.40;;;14.30;72.70;;;;;;5041912;28;20044;-64
2021/05/18 16:40:10;;;;;;;9.27;6.72;;;14.90;73.90;;;;;;5045309;28;20051;-64
2021/05/18 16:42:37;;;;;;;11.40;6.60;;;14.20;73.90;;;;;;5044790;28;20124;-65
2021/05/18 16:45:05;;;;;;;8.75;6.57;;;14.20;74.60;;;;;;5045014;28;20037;-63
2021/05/18 16:47:31;;;;;;;10.63;6.88;;;14.10;74.20;;;;;;5047106;28;20094;-63
2021/05/18 16:49:57;;;;;;;11.43;6.38;;;14.30;74.50;;;;;;5053005;28;20510;-63
2021/05/18 16:52:23;;;;;;;11.70;6.88;;;14.30;74.90;;;;;;5038540;28;20041;-63
2021/05/18 16:54:49;;;;;;;10.32;6.70;;;14.40;73.20;;;;;;5067103;28;20040;-63
2021/05/18 16:57:15;;;;;;;9.38;6.78;;;14.40;73.60;;;;;;5044537;28;20422;-63
2021/05/18 16:59:41;;;;;;;8.95;5.72;;;14.50;72.20;;;;;;5051614;28;20059;-63
2021/05/18 17:02:08;;;;;;;10.77;6.90;;;14.50;73.30;;;;;;5039737;28;20060;-64
2021/05/18 17:04:34;;;;;;;9.20;6.32;;;14.30;72.40;;;;;;5049420;28;20116;-63
2021/05/18 17:07:02;;;;;;;10.40;7.10;;;14.40;72.20;;;;;;5040258;28;20549;-63
2021/05/18 17:09:29;;;;;;;10.77;7.45;;;14.30;72.50;;;;;;5044671;28;20070;-62
2021/05/18 17:11:55;;;;;;;11.38;7.35;;;14.90;74.70;;;;;;5043835;28;20044;-62
2021/05/18 17:14:22;;;;;;;9.40;6.80;;;13.80;75.10;;;;;;5037857;28;20486;-62
2021/05/18 17:16:49;;;;;;;13.30;7.78;;;14.10;74.80;;;;;;5042222;28;20471;-63
2021/05/18 17:19:15;;;;;;;10.07;8.00;;;14.00;76.70;;;;;;5039118;28;20059;-64
2021/05/18 17:21:41;;;;;;;11.90;8.60;;;14.00;76.60;;;;;;5032959;28;20041;-63
2021/05/18 17:24:08;;;;;;;11.57;8.07;;;13.60;78.20;;;;;;5044118;28;20064;-64
2021/05/18 17:26:34;;;;;;;18.77;10.90;;;14.20;79.20;;;;;;5044950;28;20033;-63
2021/05/18 17:29:00;;;;;;;12.55;8.40;;;13.90;79.00;;;;;;5046161;28;20037;-63
2021/05/18 17:31:27;;;;;;;13.25;8.65;;;13.80;78.40;;;;;;5044953;28;20037;-63
2021/05/18 17:33:53;;;;;;;12.60;8.80;;;13.70;79.20;;;;;;5045222;28;20041;-63
2021/05/18 17:36:20;;;;;;;15.02;8.70;;;13.60;78.70;;;;;;5045278;28;20044;-63
2021/05/18 17:38:46;;;;;;;11.07;8.20;;;13.50;79.60;;;;;;5042744;28;20069;-64
2021/05/18 17:41:12;;;;;;;12.27;8.38;;;13.60;79.70;;;;;;5045597;28;20071;-62
2021/05/18 17:43:38;;;;;;;14.00;8.02;;;14.10;80.40;;;;;;5050550;28;20116;-63
2021/05/18 17:46:07;;;;;;;17.77;9.00;;;14.20;82.50;;;;;;5044172;28;20037;-64
2021/05/18 17:48:32;;;;;;;15.38;9.52;;;14.00;81.80;;;;;;5042854;28;20057;-63
2021/05/18 17:50:58;;;;;;;15.93;9.88;;;13.90;84.80;;;;;;5044329;28;20069;-63
2021/05/18 17:53:25;;;;;;;14.88;10.27;;;11.70;84.30;;;;;;5040266;28;20230;-63
2021/05/18 17:55:50;;;;;;;14.63;9.52;;;13.10;84.00;;;;;;5044937;28;20047;-63
2021/05/18 17:58:16;;;;;;;14.23;9.45;;;12.80;86.80;;;;;;5044713;28;20037;-63
2021/05/18 18:00:42;;;;;;;16.52;10.30;;;13.00;85.50;;;;;;5039700;28;20083;-63
2021/05/18 18:03:08;;;;;;;13.85;9.38;;;12.00;87.80;;;;;;5045106;28;20063;-62